createdAt,value
2023-05-19T00:00:04.431Z,1018.76
2023-05-19T00:05:03.332Z,1018.76
2023-05-19T00:10:04.318Z,1018.72
2023-05-19T00:15:03.457Z,1018.68
2023-05-19T00:20:04.371Z,1018.62
2023-05-19T00:25:03.448Z,1018.62
2023-05-19T00:30:05.578Z,1018.57
2023-05-19T00:35:03.557Z,1018.58
2023-05-19T00:40:04.605Z,1018.59
2023-05-19T00:45:03.309Z,1018.61
2023-05-19T00:50:07.673Z,1018.58
2023-05-19T00:55:03.444Z,1018.68
2023-05-19T01:00:09.230Z,1018.67
2023-05-19T01:05:03.433Z,1018.63
2023-05-19T01:10:04.475Z,1018.64
2023-05-19T01:15:03.224Z,1018.67
2023-05-19T01:20:04.405Z,1018.64
2023-05-19T01:25:03.529Z,1018.69
2023-05-19T01:30:04.505Z,1018.67
2023-05-19T01:35:03.386Z,1018.69
2023-05-19T01:40:04.375Z,1018.71
2023-05-19T01:45:03.275Z,1018.74
2023-05-19T01:50:04.538Z,1018.73
2023-05-19T01:55:03.410Z,1018.71
2023-05-19T02:00:04.464Z,1018.77
2023-05-19T02:05:03.433Z,1018.8
2023-05-19T02:10:04.518Z,1018.77
2023-05-19T02:15:03.535Z,1018.73
2023-05-19T02:20:04.321Z,1018.68
2023-05-19T02:25:03.342Z,1018.61
2023-05-19T02:30:04.402Z,1018.57
2023-05-19T02:35:03.701Z,1018.56
2023-05-19T02:40:04.285Z,1018.54
2023-05-19T02:45:03.445Z,1018.54
2023-05-19T02:50:04.371Z,1018.6
2023-05-19T02:55:03.338Z,1018.58
2023-05-19T03:00:04.449Z,1018.59
2023-05-19T03:05:03.404Z,1018.57
2023-05-19T03:10:04.250Z,1018.57
2023-05-19T03:15:03.251Z,1018.58
2023-05-19T03:20:04.390Z,1018.59
2023-05-19T03:25:03.375Z,1018.57
2023-05-19T03:30:06.443Z,1018.57
2023-05-19T03:35:03.442Z,1018.61
2023-05-19T03:40:04.485Z,1018.61
2023-05-19T03:45:03.215Z,1018.62
2023-05-19T03:50:04.370Z,1018.65
2023-05-19T03:55:03.337Z,1018.6
2023-05-19T04:00:05.508Z,1018.57
2023-05-19T04:05:03.126Z,1018.58
2023-05-19T04:10:04.885Z,1018.48
2023-05-19T04:15:03.357Z,1018.44
2023-05-19T04:20:04.484Z,1018.46
2023-05-19T04:25:03.280Z,1018.46
2023-05-19T04:30:04.523Z,1018.46
2023-05-19T04:35:03.386Z,1018.45
2023-05-19T04:40:04.461Z,1018.41
2023-05-19T04:45:03.263Z,1018.43
2023-05-19T04:50:05.347Z,1018.42
2023-05-19T04:55:03.273Z,1018.31
2023-05-19T05:00:04.390Z,1018.28
2023-05-19T05:05:03.412Z,1018.27
2023-05-19T05:10:04.489Z,1018.22
2023-05-19T05:15:03.185Z,1018.21
2023-05-19T05:20:04.379Z,1018.15
2023-05-19T05:25:03.458Z,1018.1
2023-05-19T05:30:04.359Z,1018.04
2023-05-19T05:35:03.362Z,1018.0
2023-05-19T05:40:04.242Z,1017.93
2023-05-19T05:45:03.202Z,1017.85
2023-05-19T05:50:04.350Z,1017.83
2023-05-19T05:55:03.301Z,1017.73
2023-05-19T06:00:04.405Z,1017.71
2023-05-19T06:05:03.369Z,1017.67
2023-05-19T06:10:04.495Z,1017.66
2023-05-19T06:15:03.379Z,1017.67
2023-05-19T06:20:04.276Z,1017.65
2023-05-19T06:25:03.320Z,1017.68
2023-05-19T06:30:04.429Z,1017.69
2023-05-19T06:35:03.379Z,1017.6
2023-05-19T06:40:04.014Z,1017.53
2023-05-19T06:45:03.397Z,1017.56
2023-05-19T06:50:04.308Z,1017.59
2023-05-19T06:55:03.280Z,1017.56
2023-05-19T07:00:04.304Z,1017.5
2023-05-19T07:05:03.365Z,1017.44
2023-05-19T07:10:04.453Z,1017.49
2023-05-19T07:15:03.207Z,1017.51
2023-05-19T07:20:04.294Z,1017.5
2023-05-19T07:25:03.321Z,1017.48
2023-05-19T07:30:04.422Z,1017.44
2023-05-19T07:35:03.349Z,1017.44
2023-05-19T07:40:04.432Z,1017.45
2023-05-19T07:45:03.455Z,1017.52
2023-05-19T07:50:04.292Z,1017.54
2023-05-19T07:55:03.245Z,1017.55
2023-05-19T08:00:04.357Z,1017.59
2023-05-19T08:05:03.312Z,1017.66
2023-05-19T08:10:04.441Z,1017.73
2023-05-19T08:15:03.195Z,1017.72
2023-05-19T08:20:06.525Z,1017.79
2023-05-19T08:25:03.320Z,1017.76
2023-05-19T08:30:04.374Z,1017.81
2023-05-19T08:35:03.321Z,1017.94
2023-05-19T08:40:04.464Z,1018.0
2023-05-19T08:45:03.406Z,1018.05
2023-05-19T08:50:04.296Z,1018.14
2023-05-19T08:55:03.207Z,1018.23
2023-05-19T09:00:04.394Z,1018.22
2023-05-19T09:05:03.387Z,1018.29
2023-05-19T09:10:04.422Z,1018.31
2023-05-19T09:15:03.383Z,1018.31
2023-05-19T09:20:04.464Z,1018.35
2023-05-19T09:25:03.442Z,1018.38
2023-05-19T09:30:04.516Z,1018.4
2023-05-19T09:35:03.433Z,1018.44
2023-05-19T09:40:04.443Z,1018.47
2023-05-19T09:45:03.375Z,1018.5
2023-05-19T09:50:04.257Z,1018.52
2023-05-19T09:55:03.216Z,1018.55
2023-05-19T10:00:04.271Z,1018.61
2023-05-19T10:05:03.433Z,1018.66
2023-05-19T10:10:04.440Z,1018.68
2023-05-19T10:15:03.377Z,1018.73
2023-05-19T10:20:04.445Z,1018.78
2023-05-19T10:25:03.311Z,1018.94
2023-05-19T10:30:04.336Z,1018.98
2023-05-19T10:35:03.291Z,1019.04
2023-05-19T10:40:04.420Z,1019.15
2023-05-19T10:45:03.158Z,1019.2
2023-05-19T10:50:04.243Z,1019.18
2023-05-19T10:55:03.229Z,1019.25
2023-05-19T11:00:04.570Z,1019.34
2023-05-19T11:05:03.373Z,1019.36
2023-05-19T11:10:05.397Z,1019.37
2023-05-19T11:15:03.384Z,1019.47
2023-05-19T11:20:04.505Z,1019.43
2023-05-19T11:25:03.234Z,1019.43
2023-05-19T11:30:04.392Z,1019.45
2023-05-19T11:35:03.403Z,1019.56
2023-05-19T11:40:04.447Z,1019.61
2023-05-19T11:45:03.344Z,1019.66
2023-05-19T11:50:04.635Z,1019.69
2023-05-19T11:55:03.252Z,1019.71
2023-05-19T12:00:04.383Z,1019.7
2023-05-19T12:05:03.352Z,1019.69
2023-05-19T12:10:04.376Z,1019.79
2023-05-19T12:15:03.370Z,1019.77
2023-05-19T12:20:05.568Z,1019.81
2023-05-19T12:25:03.461Z,1019.85
2023-05-19T12:30:04.369Z,1019.9
2023-05-19T12:35:03.312Z,1019.96
2023-05-19T12:40:04.324Z,1020.0
2023-05-19T12:45:03.604Z,1019.99
2023-05-19T12:50:04.495Z,1019.99
2023-05-19T12:55:03.501Z,1019.98
2023-05-19T13:00:04.563Z,1019.96
2023-05-19T13:05:03.291Z,1019.94
2023-05-19T13:10:04.543Z,1019.88
2023-05-19T13:15:03.359Z,1019.93
2023-05-19T13:20:04.261Z,1019.87
2023-05-19T13:25:03.337Z,1019.77
2023-05-19T13:30:06.465Z,1019.71
2023-05-19T13:35:03.319Z,1019.65
2023-05-19T13:40:04.530Z,1019.63
2023-05-19T13:45:03.339Z,1019.7
2023-05-19T13:50:04.253Z,1019.7
2023-05-19T13:55:03.206Z,1019.67
2023-05-19T14:00:04.490Z,1019.6
2023-05-19T14:05:03.328Z,1019.52
2023-05-19T14:10:04.592Z,1019.52
2023-05-19T14:15:03.518Z,1019.47
2023-05-19T14:20:04.496Z,1019.35
2023-05-19T14:25:03.465Z,1019.31
2023-05-19T14:30:04.666Z,1019.2
2023-05-19T14:35:03.406Z,1019.19
2023-05-19T14:40:04.354Z,1019.22
2023-05-19T14:45:03.442Z,1019.18
2023-05-19T14:50:04.466Z,1019.08
2023-05-19T14:55:03.619Z,1018.95
2023-05-19T15:00:04.106Z,1018.85
2023-05-19T15:05:03.265Z,1018.85
2023-05-19T15:10:04.319Z,1018.81
2023-05-19T15:15:03.364Z,1018.67
2023-05-19T15:20:04.428Z,1018.63
2023-05-19T15:25:03.197Z,1018.51
2023-05-19T15:30:04.478Z,1018.41
2023-05-19T15:35:03.218Z,1018.29
2023-05-19T15:40:04.403Z,1018.18
2023-05-19T15:45:03.315Z,1018.04
2023-05-19T15:50:04.497Z,1018.01
2023-05-19T15:55:03.369Z,1017.79
2023-05-19T16:00:04.319Z,1017.77
2023-05-19T16:05:03.310Z,1017.72
2023-05-19T16:10:04.467Z,1017.62
2023-05-19T16:15:03.367Z,1017.54
2023-05-19T16:20:04.440Z,1017.5
2023-05-19T16:25:03.430Z,1017.47
2023-05-19T16:30:04.516Z,1017.31
2023-05-19T16:35:03.247Z,1017.28
2023-05-19T16:40:04.213Z,1017.23
2023-05-19T16:45:03.413Z,1017.06
2023-05-19T16:50:04.438Z,1017.01
2023-05-19T16:55:03.329Z,1016.93
2023-05-19T17:00:04.489Z,1016.94
2023-05-19T17:05:04.300Z,1016.94
2023-05-19T17:10:04.348Z,1016.77
2023-05-19T17:15:03.277Z,1016.65
2023-05-19T17:20:04.427Z,1016.54
2023-05-19T17:25:03.478Z,1016.57
2023-05-19T17:30:04.527Z,1016.52
2023-05-19T17:35:03.339Z,1016.52
2023-05-19T17:40:04.416Z,1016.48
2023-05-19T17:45:03.314Z,1016.45
2023-05-19T17:50:04.449Z,1016.32
2023-05-19T17:55:03.416Z,1016.19
2023-05-19T18:00:04.296Z,1016.04
2023-05-19T18:05:03.188Z,1015.97
2023-05-19T18:10:04.351Z,1016.05
2023-05-19T18:15:03.293Z,1016.03
2023-05-19T18:20:04.424Z,1015.98
2023-05-19T18:25:04.374Z,1015.94
2023-05-19T18:30:04.407Z,1015.83
2023-05-19T18:35:03.233Z,1015.8
2023-05-19T18:40:04.077Z,1015.71
2023-05-19T18:45:03.412Z,1015.59
2023-05-19T18:50:04.507Z,1015.65
2023-05-19T18:55:03.376Z,1015.52
2023-05-19T19:00:04.277Z,1015.48
2023-05-19T19:05:03.242Z,1015.43
2023-05-19T19:10:05.155Z,1015.38
2023-05-19T19:15:03.302Z,1015.27
2023-05-19T19:20:05.517Z,1015.25
2023-05-19T19:25:03.371Z,1015.28
2023-05-19T19:30:04.452Z,1015.21
2023-05-19T19:35:03.448Z,1015.08
2023-05-19T19:40:04.483Z,1015.1
2023-05-19T19:45:03.341Z,1015.14
2023-05-19T19:50:04.512Z,1015.16
2023-05-19T19:55:03.348Z,1015.23
2023-05-19T20:00:04.217Z,1015.26
2023-05-19T20:05:03.590Z,1015.29
2023-05-19T20:10:04.535Z,1015.28
2023-05-19T20:15:03.452Z,1015.31
2023-05-19T20:20:04.409Z,1015.32
2023-05-19T20:25:03.426Z,1015.33
2023-05-19T20:30:04.435Z,1015.35
2023-05-19T20:35:03.277Z,1015.35
2023-05-19T20:40:04.319Z,1015.47
2023-05-19T20:45:03.266Z,1015.47
2023-05-19T20:50:04.403Z,1015.45
2023-05-19T20:55:03.369Z,1015.5
2023-05-19T21:00:04.478Z,1015.59
2023-05-19T21:05:03.358Z,1015.64
2023-05-19T21:10:04.489Z,1015.67
2023-05-19T21:15:03.301Z,1015.72
2023-05-19T21:20:04.322Z,1015.8
2023-05-19T21:25:03.349Z,1015.86
2023-05-19T21:30:04.595Z,1015.94
2023-05-19T21:35:03.527Z,1015.99
2023-05-19T21:40:04.656Z,1016.02
2023-05-19T21:45:03.395Z,1015.99
2023-05-19T21:50:04.404Z,1016.04
2023-05-19T21:55:03.600Z,1016.15
2023-05-19T22:00:05.705Z,1016.25
2023-05-19T22:05:03.381Z,1016.4
2023-05-19T22:10:04.661Z,1016.48
2023-05-19T22:15:04.301Z,1016.51
2023-05-19T22:20:04.784Z,1016.58
2023-05-19T22:25:03.598Z,1016.71
2023-05-19T22:30:04.611Z,1016.77
2023-05-19T22:35:03.677Z,1016.83
2023-05-19T22:40:04.804Z,1016.93
2023-05-19T22:45:03.551Z,1017.05
2023-05-19T22:50:04.593Z,1017.14
2023-05-19T22:55:05.189Z,1017.23
2023-05-19T23:00:04.519Z,1017.34
2023-05-19T23:05:03.534Z,1017.36
2023-05-19T23:10:04.739Z,1017.37
2023-05-19T23:15:04.356Z,1017.41
2023-05-19T23:20:06.231Z,1017.37
2023-05-19T23:25:03.496Z,1017.41
2023-05-19T23:30:04.683Z,1017.49
2023-05-19T23:35:03.376Z,1017.48
2023-05-19T23:40:05.563Z,1017.52
2023-05-19T23:45:04.511Z,1017.56
2023-05-19T23:50:04.403Z,1017.58
2023-05-19T23:55:03.386Z,1017.53
